메인 페이지
METAR-TAF:

METAR-TAF

공항 :

Los Alamitos Army Airfield

Los Alamitos, 캘리포니아, 미국

위도: 33-47N, 경도: 118-03W, 고도: 11m

현재 날씨관측

예보는 38분 전, 18:55시(UTC)에 발표되었습니다.
남서7kt
온도 22°C
습도 60%
기압 1015 hPa
시정: 16.1km
고도 2300ft 상공 구름 조금

METAR: KSLI 131855Z 23007KT 10SM FEW023 22/14 A2996 RMK AO2A SLP148 T02180137

시각: 12:33 (19:33 UTC)

예보

예보는 6 시간 33분 전, 13:00시(UTC)에 발표되었습니다.
예보 대상 시간: 13일 13시부터 14일 19시까지 (UTC)
여러 방향의 바람 6kt
시정: 8000m
고도 1000ft 상공 흐림
박무
전환 중
13일 18시부터 13일 19시까지 (UTC)
여러 방향의 바람 6kt
시정: 8000m
고도 1100ft 상공 구름 보통
박무
전환 중
14일 09시부터 14일 10시까지 (UTC)
여러 방향의 바람 6kt
시정: 8000m
고도 300ft 상공 흐림
박무
전환 중
14일 15시부터 14일 16시까지 (UTC)
여러 방향의 바람 6kt
시정: 8000m
고도 400ft 상공 구름 보통
고도 1100ft 상공 흐림
박무
전환 중
14일 16시부터 14일 17시까지 (UTC)
여러 방향의 바람 6kt
시정: 8000m
고도 1100ft 상공 구름 보통
박무,

TAF: KSLI 131300Z 1313/1419 VRB06KT 8000 BR OVC010 QNH2992INS BECMG 1318/1319 VRB06KT 8000 BR SCT011 QNH2996INS BECMG 1409/1410 VRB06KT 8000 BR OVC003 QNH2996INS BECMG 1415/1416 VRB06KT 8000 BR SCT004 OVC011 QNH3000INS BECMG 1416/1417 VRB06KT 8000 BR SCT011 QNH2997INS TX22/1323Z TN14/1411Z

4,000개 이상의 공항 관측 자료 및 예보 (METAR 및 TAF 보고).

지도상에서 검색 가능한 기상관측소가 노란 점과 빨간 점으로 표시되어 있습니다.

기상관측소 명을 보려면 표시 위로 마우스를 이동하세요.

날씨 관측과 예보를 보려면 클릭하세요.

지도 변경 : 확대하려면 엑스 표시가 있는 녹색 버튼, 축소하려면 빼기 표시가 있는 녹색 버튼, 다음 페이지의 지도를 보려면 녹색 화살표를 클릭하세요.


METAR-TAF: